sensor_id;sensor_type;location;lat;lon;timestamp;pressure;altitude;pressure_sealevel;temperature;humidity
62418;BME280;48456;54.242;10.280;2023-02-13T00:00:37;103573.91;;;5.30;100.00
62418;BME280;48456;54.242;10.280;2023-02-13T00:03:15;103570.44;;;5.31;100.00
62418;BME280;48456;54.242;10.280;2023-02-13T00:05:50;103574.91;;;5.32;100.00
62418;BME280;48456;54.242;10.280;2023-02-13T00:09:03;103572.28;;;5.32;100.00
62418;BME280;48456;54.242;10.280;2023-02-13T00:17:33;103560.78;;;5.30;100.00
62418;BME280;48456;54.242;10.280;2023-02-13T00:25:54;103557.94;;;5.27;100.00
62418;BME280;48456;54.242;10.280;2023-02-13T00:31:54;103549.19;;;5.27;100.00
62418;BME280;48456;54.242;10.280;2023-02-13T00:34:39;103550.06;;;5.27;100.00
62418;BME280;48456;54.242;10.280;2023-02-13T00:37:12;103549.09;;;5.25;100.00
62418;BME280;48456;54.242;10.280;2023-02-13T00:48:21;103553.41;;;5.25;100.00
62418;BME280;48456;54.242;10.280;2023-02-13T00:50:47;103546.25;;;5.22;100.00
62418;BME280;48456;54.242;10.280;2023-02-13T00:53:14;103555.06;;;5.23;100.00
62418;BME280;48456;54.242;10.280;2023-02-13T00:55:40;103552.44;;;5.23;100.00
62418;BME280;48456;54.242;10.280;2023-02-13T00:58:07;103554.94;;;5.21;100.00
62418;BME280;48456;54.242;10.280;2023-02-13T01:00:33;103558.41;;;5.20;100.00
62418;BME280;48456;54.242;10.280;2023-02-13T01:03:00;103558.19;;;5.17;100.00
62418;BME280;48456;54.242;10.280;2023-02-13T01:05:26;103556.38;;;5.16;100.00
62418;BME280;48456;54.242;10.280;2023-02-13T01:07:53;103556.38;;;5.16;100.00
62418;BME280;48456;54.242;10.280;2023-02-13T01:10:19;103547.59;;;5.15;100.00
62418;BME280;48456;54.242;10.280;2023-02-13T01:12:46;103551.03;;;5.14;100.00
62418;BME280;48456;54.242;10.280;2023-02-13T01:15:12;103545.78;;;5.14;100.00
62418;BME280;48456;54.242;10.280;2023-02-13T01:17:39;103551.03;;;5.14;100.00
62418;BME280;48456;54.242;10.280;2023-02-13T01:20:05;103544.97;;;5.15;100.00
62418;BME280;48456;54.242;10.280;2023-02-13T01:22:32;103543.94;;;5.13;100.00
62418;BME280;48456;54.242;10.280;2023-02-13T01:24:58;103550.03;;;5.12;100.00
62418;BME280;48456;54.242;10.280;2023-02-13T01:27:26;103545.69;;;5.13;100.00
62418;BME280;48456;54.242;10.280;2023-02-13T01:29:53;103543.06;;;5.13;100.00
62418;BME280;48456;54.242;10.280;2023-02-13T01:32:19;103541.25;;;5.12;100.00
62418;BME280;48456;54.242;10.280;2023-02-13T01:34:46;103551.66;;;5.10;100.00
62418;BME280;48456;54.242;10.280;2023-02-13T01:37:12;103537.63;;;5.10;100.00
62418;BME280;48456;54.242;10.280;2023-02-13T01:39:39;103542.88;;;5.10;100.00
62418;BME280;48456;54.242;10.280;2023-02-13T01:42:09;103537.72;;;5.11;100.00
62418;BME280;48456;54.242;10.280;2023-02-13T01:47:10;103542.16;;;5.12;100.00
62418;BME280;48456;54.242;10.280;2023-02-13T01:49:38;103539.34;;;5.09;100.00
62418;BME280;48456;54.242;10.280;2023-02-13T01:52:05;103541.16;;;5.10;100.00
62418;BME280;48456;54.242;10.280;2023-02-13T01:54:33;103533.19;;;5.09;100.00
62418;BME280;48456;54.242;10.280;2023-02-13T01:57:11;103530.56;;;5.09;100.00
62418;BME280;48456;54.242;10.280;2023-02-13T01:59:41;103529.84;;;5.11;100.00
62418;BME280;48456;54.242;10.280;2023-02-13T02:02:10;103534.91;;;5.08;100.00
62418;BME280;48456;54.242;10.280;2023-02-13T02:04:37;103537.53;;;5.08;100.00
62418;BME280;48456;54.242;10.280;2023-02-13T02:07:09;103532.28;;;5.08;100.00
62418;BME280;48456;54.242;10.280;2023-02-13T02:09:37;103526.25;;;5.09;100.00
62418;BME280;48456;54.242;10.280;2023-02-13T02:12:08;103523.69;;;5.11;100.00
62418;BME280;48456;54.242;10.280;2023-02-13T02:14:36;103521.00;;;5.09;100.00
62418;BME280;48456;54.242;10.280;2023-02-13T02:17:03;103524.41;;;5.08;100.00
62418;BME280;48456;54.242;10.280;2023-02-13T02:22:03;103521.59;;;5.05;100.00
62418;BME280;48456;54.242;10.280;2023-02-13T02:45:15;103515.44;;;5.04;100.00
62418;BME280;48456;54.242;10.280;2023-02-13T02:47:55;103510.19;;;5.04;100.00
62418;BME280;48456;54.242;10.280;2023-02-13T02:50:49;103512.81;;;5.04;100.00
62418;BME280;48456;54.242;10.280;2023-02-13T02:53:34;103510.28;;;5.06;100.00
62418;BME280;48456;54.242;10.280;2023-02-13T02:58:52;103514.53;;;5.04;100.00
62418;BME280;48456;54.242;10.280;2023-02-13T03:01:58;103511.81;;;5.02;100.00
62418;BME280;48456;54.242;10.280;2023-02-13T03:04:50;103503.16;;;5.03;100.00
62418;BME280;48456;54.242;10.280;2023-02-13T03:07:35;103504.03;;;5.04;100.00
62418;BME280;48456;54.242;10.280;2023-02-13T03:10:03;103499.69;;;5.04;100.00
62418;BME280;48456;54.242;10.280;2023-02-13T03:12:50;103508.50;;;5.05;100.00
62418;BME280;48456;54.242;10.280;2023-02-13T03:15:39;103513.81;;;5.06;100.00
62418;BME280;48456;54.242;10.280;2023-02-13T03:18:26;103496.16;;;5.04;100.00
62418;BME280;48456;54.242;10.280;2023-02-13T03:21:15;103503.16;;;5.03;100.00
62418;BME280;48456;54.242;10.280;2023-02-13T03:24:50;103507.56;;;5.04;100.00
62418;BME280;48456;54.242;10.280;2023-02-13T03:32:20;103507.38;;;5.01;100.00
62418;BME280;48456;54.242;10.280;2023-02-13T03:34:51;103496.88;;;5.01;100.00
62418;BME280;48456;54.242;10.280;2023-02-13T03:37:41;103502.03;;;5.00;100.00
62418;BME280;48456;54.242;10.280;2023-02-13T03:48:22;103508.19;;;5.00;100.00
62418;BME280;48456;54.242;10.280;2023-02-13T03:51:09;103515.13;;;5.00;100.00
62418;BME280;48456;54.242;10.280;2023-02-13T03:53:38;103513.34;;;4.99;100.00
62418;BME280;48456;54.242;10.280;2023-02-13T03:56:07;103521.31;;;5.00;100.00
62418;BME280;48456;54.242;10.280;2023-02-13T03:58:53;103511.63;;;4.99;100.00
62418;BME280;48456;54.242;10.280;2023-02-13T04:01:46;103519.50;;;4.99;100.00
62418;BME280;48456;54.242;10.280;2023-02-13T04:04:21;103513.44;;;5.00;100.00
62418;BME280;48456;54.242;10.280;2023-02-13T04:09:17;103515.97;;;4.99;100.00
62418;BME280;48456;54.242;10.280;2023-02-13T04:14:14;103512.41;;;4.98;100.00
62418;BME280;48456;54.242;10.280;2023-02-13T04:16:48;103515.84;;;4.97;100.00
62418;BME280;48456;54.242;10.280;2023-02-13T04:19:16;103515.84;;;4.97;100.00
62418;BME280;48456;54.242;10.280;2023-02-13T04:21:43;103520.22;;;4.97;100.00
62418;BME280;48456;54.242;10.280;2023-02-13T04:24:11;103519.31;;;4.96;100.00
62418;BME280;48456;54.242;10.280;2023-02-13T04:26:38;103517.59;;;4.97;100.00
62418;BME280;48456;54.242;10.280;2023-02-13T04:29:05;103516.56;;;4.94;100.00
62418;BME280;48456;54.242;10.280;2023-02-13T04:31:31;103511.31;;;4.94;100.00
62418;BME280;48456;54.242;10.280;2023-02-13T04:33:58;103512.16;;;4.93;100.00
62418;BME280;48456;54.242;10.280;2023-02-13T04:36:24;103502.47;;;4.92;100.00
62418;BME280;48456;54.242;10.280;2023-02-13T04:38:51;103507.72;;;4.92;100.00
62418;BME280;48456;54.242;10.280;2023-02-13T04:41:17;103512.88;;;4.91;100.00
62418;BME280;48456;54.242;10.280;2023-02-13T04:43:44;103512.03;;;4.92;100.00
62418;BME280;48456;54.242;10.280;2023-02-13T04:46:10;103511.94;;;4.90;100.00
62418;BME280;48456;54.242;10.280;2023-02-13T04:48:36;103509.22;;;4.89;100.00
62418;BME280;48456;54.242;10.280;2023-02-13T04:51:04;103501.25;;;4.87;100.00
62418;BME280;48456;54.242;10.280;2023-02-13T04:53:30;103502.06;;;4.86;100.00
62418;BME280;48456;54.242;10.280;2023-02-13T04:55:56;103502.06;;;4.86;100.00
62418;BME280;48456;54.242;10.280;2023-02-13T04:58:23;103509.06;;;4.86;100.00
62418;BME280;48456;54.242;10.280;2023-02-13T05:00:49;103502.88;;;4.85;100.00
62418;BME280;48456;54.242;10.280;2023-02-13T05:03:15;103502.88;;;4.85;100.00
62418;BME280;48456;54.242;10.280;2023-02-13T05:05:42;103509.06;;;4.86;100.00
62418;BME280;48456;54.242;10.280;2023-02-13T05:08:08;103512.34;;;4.83;100.00
62418;BME280;48456;54.242;10.280;2023-02-13T05:10:35;103507.13;;;4.83;100.00
62418;BME280;48456;54.242;10.280;2023-02-13T05:13:01;103512.28;;;4.81;100.00
62418;BME280;48456;54.242;10.280;2023-02-13T05:15:28;103508.84;;;4.83;100.00
62418;BME280;48456;54.242;10.280;2023-02-13T05:17:54;103517.53;;;4.81;100.00
62418;BME280;48456;54.242;10.280;2023-02-13T05:20:21;103515.81;;;4.82;100.00
62418;BME280;48456;54.242;10.280;2023-02-13T05:22:51;103518.31;;;4.80;100.00
62418;BME280;48456;54.242;10.280;2023-02-13T05:25:37;103518.31;;;4.80;100.00
62418;BME280;48456;54.242;10.280;2023-02-13T05:28:04;103516.50;;;4.79;100.00
62418;BME280;48456;54.242;10.280;2023-02-13T05:30:51;103515.59;;;4.79;100.00
62418;BME280;48456;54.242;10.280;2023-02-13T05:33:17;103512.09;;;4.78;100.00
62418;BME280;48456;54.242;10.280;2023-02-13T05:35:44;103519.97;;;4.78;100.00
62418;BME280;48456;54.242;10.280;2023-02-13T05:38:10;103520.78;;;4.77;100.00
62418;BME280;48456;54.242;10.280;2023-02-13T05:40:36;103520.66;;;4.76;100.00
62418;BME280;48456;54.242;10.280;2023-02-13T05:43:03;103520.56;;;4.74;100.00
62418;BME280;48456;54.242;10.280;2023-02-13T05:45:29;103535.28;;;4.72;100.00
62418;BME280;48456;54.242;10.280;2023-02-13T05:47:55;103533.69;;;4.74;100.00
62418;BME280;48456;54.242;10.280;2023-02-13T05:50:22;103531.88;;;4.73;100.00
62418;BME280;48456;54.242;10.280;2023-02-13T05:52:48;103524.88;;;4.74;100.00
62418;BME280;48456;54.242;10.280;2023-02-13T05:55:14;103523.19;;;4.74;100.00
62418;BME280;48456;54.242;10.280;2023-02-13T05:57:41;103532.75;;;4.74;100.00
62418;BME280;48456;54.242;10.280;2023-02-13T06:00:07;103522.28;;;4.74;100.00
62418;BME280;48456;54.242;10.280;2023-02-13T06:02:33;103518.75;;;4.73;100.00
62418;BME280;48456;54.242;10.280;2023-02-13T06:05:00;103524.78;;;4.72;100.00
62418;BME280;48456;54.242;10.280;2023-02-13T06:07:26;103530.13;;;4.74;100.00
62418;BME280;48456;54.242;10.280;2023-02-13T06:09:52;103532.66;;;4.72;100.00
62418;BME280;48456;54.242;10.280;2023-02-13T06:12:19;103535.28;;;4.72;100.00
62418;BME280;48456;54.242;10.280;2023-02-13T06:14:45;103533.56;;;4.73;100.00
62418;BME280;48456;54.242;10.280;2023-02-13T06:17:11;103540.63;;;4.74;100.00
62418;BME280;48456;54.242;10.280;2023-02-13T06:19:38;103538.00;;;4.74;100.00
62418;BME280;48456;54.242;10.280;2023-02-13T06:22:04;103543.34;;;4.75;100.00
62418;BME280;48456;54.242;10.280;2023-02-13T06:24:30;103545.06;;;4.75;100.00
62418;BME280;48456;54.242;10.280;2023-02-13T06:26:57;103541.53;;;4.74;100.00
62418;BME280;48456;54.242;10.280;2023-02-13T06:29:23;103546.91;;;4.76;100.00
62418;BME280;48456;54.242;10.280;2023-02-13T06:31:49;103545.97;;;4.75;100.00
62418;BME280;48456;54.242;10.280;2023-02-13T06:34:16;103549.53;;;4.76;100.00
62418;BME280;48456;54.242;10.280;2023-02-13T06:36:42;103552.91;;;4.75;100.00
62418;BME280;48456;54.242;10.280;2023-02-13T06:39:09;103555.53;;;4.75;100.00
62418;BME280;48456;54.242;10.280;2023-02-13T06:41:36;103551.13;;;4.74;100.00
62418;BME280;48456;54.242;10.280;2023-02-13T06:44:02;103558.09;;;4.73;100.00
62418;BME280;48456;54.242;10.280;2023-02-13T06:46:29;103558.88;;;4.72;100.00
62418;BME280;48456;54.242;10.280;2023-02-13T06:48:55;103558.28;;;4.76;100.00
62418;BME280;48456;54.242;10.280;2023-02-13T06:51:21;103555.53;;;4.75;100.00
62418;BME280;48456;54.242;10.280;2023-02-13T06:53:48;103555.66;;;4.76;100.00
62418;BME280;48456;54.242;10.280;2023-02-13T06:56:14;103564.34;;;4.75;100.00
62418;BME280;48456;54.242;10.280;2023-02-13T06:58:40;103571.38;;;4.76;100.00
62418;BME280;48456;54.242;10.280;2023-02-13T07:01:07;103561.81;;;4.77;100.00
62418;BME280;48456;54.242;10.280;2023-02-13T07:03:33;103564.53;;;4.78;100.00
62418;BME280;48456;54.242;10.280;2023-02-13T07:06:00;103575.03;;;4.78;100.00
62418;BME280;48456;54.242;10.280;2023-02-13T07:08:26;103575.03;;;4.78;100.00
62418;BME280;48456;54.242;10.280;2023-02-13T07:10:52;103571.59;;;4.79;100.00
62418;BME280;48456;54.242;10.280;2023-02-13T07:13:19;103577.75;;;4.80;100.00
62418;BME280;48456;54.242;10.280;2023-02-13T07:15:45;103576.00;;;4.80;100.00
62418;BME280;48456;54.242;10.280;2023-02-13T07:18:12;103572.50;;;4.80;100.00
62418;BME280;48456;54.242;10.280;2023-02-13T07:20:38;103580.47;;;4.81;100.00
62418;BME280;48456;54.242;10.280;2023-02-13T07:23:04;103574.31;;;4.81;100.00
62418;BME280;48456;54.242;10.280;2023-02-13T07:25:31;103574.53;;;4.84;100.00
62418;BME280;48456;54.242;10.280;2023-02-13T07:28:04;103577.94;;;4.83;100.00
62418;BME280;48456;54.242;10.280;2023-02-13T07:30:32;103576.22;;;4.84;100.00
62418;BME280;48456;54.242;10.280;2023-02-13T07:33:02;103578.84;;;4.84;100.00
62418;BME280;48456;54.242;10.280;2023-02-13T07:35:29;103583.28;;;4.85;100.00
62418;BME280;48456;54.242;10.280;2023-02-13T07:37:55;103590.75;;;4.92;100.00
62418;BME280;48456;54.242;10.280;2023-02-13T07:40:22;103586.50;;;4.94;100.00
62418;BME280;48456;54.242;10.280;2023-02-13T07:42:48;103585.25;;;5.02;100.00
62418;BME280;48456;54.242;10.280;2023-02-13T07:45:15;103585.38;;;5.04;100.00
62418;BME280;48456;54.242;10.280;2023-02-13T07:47:41;103590.34;;;4.99;100.00
62418;BME280;48456;54.242;10.280;2023-02-13T07:50:08;103596.56;;;5.01;100.00
62418;BME280;48456;54.242;10.280;2023-02-13T07:52:35;103598.47;;;5.04;100.00
62418;BME280;48456;54.242;10.280;2023-02-13T07:55:04;103596.97;;;5.07;100.00
62418;BME280;48456;54.242;10.280;2023-02-13T07:57:30;103604.75;;;5.06;100.00
62418;BME280;48456;54.242;10.280;2023-02-13T07:59:57;103599.00;;;5.12;100.00
62418;BME280;48456;54.242;10.280;2023-02-13T08:02:23;103594.47;;;5.09;100.00
62418;BME280;48456;54.242;10.280;2023-02-13T08:04:49;103606.94;;;5.13;100.00
62418;BME280;48456;54.242;10.280;2023-02-13T08:07:16;103608.66;;;5.13;100.00
62418;BME280;48456;54.242;10.280;2023-02-13T08:09:43;103609.66;;;5.15;100.00
62418;BME280;48456;54.242;10.280;2023-02-13T08:12:29;103593.19;;;5.17;100.00
62418;BME280;48456;54.242;10.280;2023-02-13T08:14:56;103605.44;;;5.17;100.00
62418;BME280;48456;54.242;10.280;2023-02-13T08:17:22;103599.47;;;5.19;100.00
62418;BME280;48456;54.242;10.280;2023-02-13T08:19:49;103603.91;;;5.20;100.00
62418;BME280;48456;54.242;10.280;2023-02-13T08:22:15;103600.19;;;5.17;100.00
62418;BME280;48456;54.242;10.280;2023-02-13T08:24:41;103600.19;;;5.17;100.00
62418;BME280;48456;54.242;10.280;2023-02-13T08:27:10;103599.47;;;5.19;100.00
62418;BME280;48456;54.242;10.280;2023-02-13T08:29:37;103602.19;;;5.21;100.00
62418;BME280;48456;54.242;10.280;2023-02-13T08:32:03;103595.41;;;5.25;100.00
62418;BME280;48456;54.242;10.280;2023-02-13T08:34:30;103597.16;;;5.24;100.00
62418;BME280;48456;54.242;10.280;2023-02-13T08:36:56;103591.97;;;5.26;100.00
62418;BME280;48456;54.242;10.280;2023-02-13T08:39:22;103596.22;;;5.24;100.00
62418;BME280;48456;54.242;10.280;2023-02-13T08:41:49;103597.50;;;5.30;100.00
62418;BME280;48456;54.242;10.280;2023-02-13T08:44:15;103601.06;;;5.31;100.00
62418;BME280;48456;54.242;10.280;2023-02-13T08:46:41;103603.59;;;5.29;100.00
62418;BME280;48456;54.242;10.280;2023-02-13T08:49:08;103596.59;;;5.30;100.00
62418;BME280;48456;54.242;10.280;2023-02-13T08:51:34;103603.84;;;5.34;100.00
62418;BME280;48456;54.242;10.280;2023-02-13T08:54:00;103605.06;;;5.39;100.00
62418;BME280;48456;54.242;10.280;2023-02-13T08:56:27;103600.91;;;5.43;100.00
62418;BME280;48456;54.242;10.280;2023-02-13T08:58:53;103598.38;;;5.44;100.00
62418;BME280;48456;54.242;10.280;2023-02-13T09:01:20;103606.25;;;5.44;100.00
62418;BME280;48456;54.242;10.280;2023-02-13T09:03:46;103599.28;;;5.45;100.00
62418;BME280;48456;54.242;10.280;2023-02-13T09:06:12;103600.09;;;5.44;100.00
62418;BME280;48456;54.242;10.280;2023-02-13T09:08:39;103596.47;;;5.42;100.00
62418;BME280;48456;54.242;10.280;2023-02-13T09:11:05;103602.81;;;5.45;100.00
62418;BME280;48456;54.242;10.280;2023-02-13T09:13:33;103606.63;;;5.51;100.00
62418;BME280;48456;54.242;10.280;2023-02-13T09:16:00;103608.38;;;5.50;100.00
62418;BME280;48456;54.242;10.280;2023-02-13T09:18:27;103615.53;;;5.53;100.00
62418;BME280;48456;54.242;10.280;2023-02-13T09:21:01;103600.03;;;5.57;100.00
62418;BME280;48456;54.242;10.280;2023-02-13T09:23:31;103604.41;;;5.57;100.00
62418;BME280;48456;54.242;10.280;2023-02-13T09:25:59;103600.97;;;5.58;100.00
62418;BME280;48456;54.242;10.280;2023-02-13T09:28:26;103606.56;;;5.64;100.00
62418;BME280;48456;54.242;10.280;2023-02-13T09:30:53;103598.78;;;5.66;100.00
62418;BME280;48456;54.242;10.280;2023-02-13T09:33:19;103598.78;;;5.66;100.00
62418;BME280;48456;54.242;10.280;2023-02-13T09:35:46;103596.16;;;5.66;100.00
62418;BME280;48456;54.242;10.280;2023-02-13T09:38:12;103596.34;;;5.69;100.00
62418;BME280;48456;54.242;10.280;2023-02-13T09:40:46;103595.63;;;5.71;100.00
62418;BME280;48456;54.242;10.280;2023-02-13T09:45:44;103598.56;;;5.76;100.00
62418;BME280;48456;54.242;10.280;2023-02-13T09:48:23;103596.75;;;5.75;100.00
62418;BME280;48456;54.242;10.280;2023-02-13T09:50:52;103602.69;;;5.72;100.00
62418;BME280;48456;54.242;10.280;2023-02-13T09:53:20;103600.88;;;5.71;100.00
62418;BME280;48456;54.242;10.280;2023-02-13T09:56:09;103593.31;;;5.76;100.00
62418;BME280;48456;54.242;10.280;2023-02-13T10:01:01;103591.94;;;5.83;100.00
62418;BME280;48456;54.242;10.280;2023-02-13T10:03:30;103588.78;;;5.89;100.00
62418;BME280;48456;54.242;10.280;2023-02-13T10:05:59;103585.34;;;5.90;100.00
62418;BME280;48456;54.242;10.280;2023-02-13T10:08:41;103583.69;;;5.92;100.00
62418;BME280;48456;54.242;10.280;2023-02-13T10:14:04;103593.88;;;6.01;100.00
62418;BME280;48456;54.242;10.280;2023-02-13T10:16:58;103602.97;;;6.06;100.00
62418;BME280;48456;54.242;10.280;2023-02-13T10:19:36;103612.13;;;6.13;100.00
62418;BME280;48456;54.242;10.280;2023-02-13T10:22:18;103605.25;;;6.15;100.00
62418;BME280;48456;54.242;10.280;2023-02-13T10:24:53;103604.88;;;6.23;100.00
62418;BME280;48456;54.242;10.280;2023-02-13T10:27:23;103605.25;;;6.30;100.00
62418;BME280;48456;54.242;10.280;2023-02-13T10:29:57;103604.50;;;6.32;100.00
62418;BME280;48456;54.242;10.280;2023-02-13T10:32:55;103595.47;;;6.27;100.00
62418;BME280;48456;54.242;10.280;2023-02-13T10:36:29;103594.44;;;6.25;100.00
62418;BME280;48456;54.242;10.280;2023-02-13T10:38:31;103586.13;;;6.32;100.00
62418;BME280;48456;54.242;10.280;2023-02-13T10:41:03;103594.28;;;6.37;100.00
62418;BME280;48456;54.242;10.280;2023-02-13T10:51:44;103585.81;;;6.28;100.00
62418;BME280;48456;54.242;10.280;2023-02-13T10:54:21;103585.38;;;6.35;100.00
62418;BME280;48456;54.242;10.280;2023-02-13T10:56:56;103591.66;;;6.37;100.00
62418;BME280;48456;54.242;10.280;2023-02-13T11:02:20;103583.66;;;6.35;100.00
62418;BME280;48456;54.242;10.280;2023-02-13T11:04:46;103576.94;;;6.41;100.00
62418;BME280;48456;54.242;10.280;2023-02-13T11:07:14;103577.03;;;6.42;100.00
62418;BME280;48456;54.242;10.280;2023-02-13T11:09:41;103572.22;;;6.50;100.00
62418;BME280;48456;54.242;10.280;2023-02-13T11:12:22;103569.94;;;6.56;100.00
62418;BME280;48456;54.242;10.280;2023-02-13T11:14:55;103572.59;;;6.56;100.00
62418;BME280;48456;54.242;10.280;2023-02-13T11:17:22;103574.47;;;6.59;100.00
62418;BME280;48456;54.242;10.280;2023-02-13T11:19:50;103572.91;;;6.62;100.00
62418;BME280;48456;54.242;10.280;2023-02-13T11:22:51;103574.91;;;6.67;100.00
62418;BME280;48456;54.242;10.280;2023-02-13T11:25:17;103583.09;;;6.56;100.00
62418;BME280;48456;54.242;10.280;2023-02-13T11:27:45;103583.00;;;6.55;100.00
62418;BME280;48456;54.242;10.280;2023-02-13T11:32:58;103577.56;;;6.52;100.00
62418;BME280;48456;54.242;10.280;2023-02-13T11:35:27;103569.59;;;6.50;100.00
62418;BME280;48456;54.242;10.280;2023-02-13T11:40:46;103573.78;;;6.46;100.00
62418;BME280;48456;54.242;10.280;2023-02-13T11:43:34;103565.50;;;6.40;100.00
62418;BME280;48456;54.242;10.280;2023-02-13T11:46:21;103562.72;;;6.37;100.00
62418;BME280;48456;54.242;10.280;2023-02-13T11:48:55;103563.91;;;6.42;100.00
62418;BME280;48456;54.242;10.280;2023-02-13T11:54:25;103564.22;;;6.48;100.00
62418;BME280;48456;54.242;10.280;2023-02-13T11:56:55;103563.41;;;6.49;100.00
62418;BME280;48456;54.242;10.280;2023-02-13T11:59:31;103561.88;;;6.53;100.00
62418;BME280;48456;54.242;10.280;2023-02-13T12:02:03;103560.41;;;6.58;100.00
62418;BME280;48456;54.242;10.280;2023-02-13T12:04:37;103558.19;;;6.66;100.00
62418;BME280;48456;54.242;10.280;2023-02-13T12:07:09;103557.81;;;6.75;100.00
62418;BME280;48456;54.242;10.280;2023-02-13T12:09:38;103555.06;;;6.88;100.00
62418;BME280;48456;54.242;10.280;2023-02-13T12:12:05;103552.44;;;6.88;100.00
62418;BME280;48456;54.242;10.280;2023-02-13T12:14:35;103554.88;;;6.85;100.00
62418;BME280;48456;54.242;10.280;2023-02-13T12:17:06;103559.06;;;6.82;100.00
62418;BME280;48456;54.242;10.280;2023-02-13T12:19:44;103566.00;;;6.80;100.00
62418;BME280;48456;54.242;10.280;2023-02-13T12:27:38;103558.97;;;6.80;100.00
62418;BME280;48456;54.242;10.280;2023-02-13T12:32:48;103551.22;;;6.98;100.00
62418;BME280;48456;54.242;10.280;2023-02-13T12:43:00;103554.22;;;6.89;100.00
62418;BME280;48456;54.242;10.280;2023-02-13T12:45:32;103545.66;;;6.77;100.00
62418;BME280;48456;54.242;10.280;2023-02-13T12:53:17;103545.00;;;6.81;100.00
62418;BME280;48456;54.242;10.280;2023-02-13T13:12:01;103551.91;;;6.79;100.00
62418;BME280;48456;54.242;10.280;2023-02-13T13:14:51;103554.13;;;6.71;100.00
62418;BME280;48456;54.242;10.280;2023-02-13T13:22:26;103563.47;;;6.66;100.00
62418;BME280;48456;54.242;10.280;2023-02-13T13:25:04;103562.72;;;6.69;100.00
62418;BME280;48456;54.242;10.280;2023-02-13T13:27:36;103555.41;;;6.63;100.00
62418;BME280;48456;54.242;10.280;2023-02-13T13:30:25;103557.47;;;6.69;100.00
62418;BME280;48456;54.242;10.280;2023-02-13T13:32:57;103547.84;;;6.69;100.00
62418;BME280;48456;54.242;10.280;2023-02-13T13:35:26;103549.56;;;6.69;100.00
62418;BME280;48456;54.242;10.280;2023-02-13T13:37:55;103550.41;;;6.68;100.00
62418;BME280;48456;54.242;10.280;2023-02-13T13:40:49;103548.94;;;6.73;100.00
62418;BME280;48456;54.242;10.280;2023-02-13T13:48:30;103559.88;;;6.49;100.00
62418;BME280;48456;54.242;10.280;2023-02-13T13:51:03;103563.16;;;6.45;100.00
62418;BME280;48456;54.242;10.280;2023-02-13T13:53:31;103560.72;;;6.48;100.00
62418;BME280;48456;54.242;10.280;2023-02-13T13:55:59;103557.81;;;6.43;100.00
62418;BME280;48456;54.242;10.280;2023-02-13T14:03:37;103551.00;;;6.32;100.00
62418;BME280;48456;54.242;10.280;2023-02-13T14:06:05;103548.38;;;6.32;100.00
62418;BME280;48456;54.242;10.280;2023-02-13T14:13:52;103537.78;;;6.30;100.00
62418;BME280;48456;54.242;10.280;2023-02-13T14:19:04;103538.25;;;6.23;100.00
62418;BME280;48456;54.242;10.280;2023-02-13T14:21:31;103535.72;;;6.24;100.00
62418;BME280;48456;54.242;10.280;2023-02-13T14:23:58;103543.25;;;6.18;100.00
62418;BME280;48456;54.242;10.280;2023-02-13T14:26:33;103534.19;;;6.13;100.00
62418;BME280;48456;54.242;10.280;2023-02-13T14:31:39;103530.47;;;6.09;100.00
62418;BME280;48456;54.242;10.280;2023-02-13T14:36:46;103530.38;;;6.08;100.00
62418;BME280;48456;54.242;10.280;2023-02-13T14:44:18;103522.81;;;5.99;100.00
62418;BME280;48456;54.242;10.280;2023-02-13T14:46:45;103520.66;;;5.92;100.00
62418;BME280;48456;54.242;10.280;2023-02-13T14:49:16;103514.31;;;5.88;100.00
62418;BME280;48456;54.242;10.280;2023-02-13T14:54:37;103516.84;;;5.87;100.00
62418;BME280;48456;54.242;10.280;2023-02-13T14:59:35;103514.94;;;5.84;100.00
62418;BME280;48456;54.242;10.280;2023-02-13T15:02:22;103515.78;;;5.83;100.00
62418;BME280;48456;54.242;10.280;2023-02-13T15:05:03;103516.59;;;5.82;100.00
62418;BME280;48456;54.242;10.280;2023-02-13T15:07:35;103512.41;;;5.85;100.00
62418;BME280;48456;54.242;10.280;2023-02-13T15:12:56;103511.50;;;5.85;100.00
62418;BME280;48456;54.242;10.280;2023-02-13T15:17:49;103496.47;;;5.82;100.00
62418;BME280;48456;54.242;10.280;2023-02-13T15:20:25;103495.47;;;5.80;100.00
62418;BME280;48456;54.242;10.280;2023-02-13T15:22:52;103494.56;;;5.80;100.00
62418;BME280;48456;54.242;10.280;2023-02-13T15:25:21;103495.94;;;5.73;100.00
62418;BME280;48456;54.242;10.280;2023-02-13T15:27:51;103497.72;;;5.74;100.00
62418;BME280;48456;54.242;10.280;2023-02-13T15:30:27;103501.91;;;5.70;100.00
62418;BME280;48456;54.242;10.280;2023-02-13T15:32:54;103506.06;;;5.67;100.00
62418;BME280;48456;54.242;10.280;2023-02-13T15:35:23;103506.88;;;5.66;100.00
62418;BME280;48456;54.242;10.280;2023-02-13T15:37:51;103508.72;;;5.67;100.00
62418;BME280;48456;54.242;10.280;2023-02-13T15:40:27;103498.25;;;5.68;100.00
62418;BME280;48456;54.242;10.280;2023-02-13T15:42:54;103494.13;;;5.72;100.00
62418;BME280;48456;54.242;10.280;2023-02-13T15:45:22;103489.84;;;5.74;100.00
62418;BME280;48456;54.242;10.280;2023-02-13T15:47:50;103490.66;;;5.73;100.00
62418;BME280;48456;54.242;10.280;2023-02-13T15:50:18;103488.88;;;5.72;100.00
62418;BME280;48456;54.242;10.280;2023-02-13T15:52:46;103493.09;;;5.70;100.00
62418;BME280;48456;54.242;10.280;2023-02-13T15:55:20;103479.09;;;5.69;100.00
62418;BME280;48456;54.242;10.280;2023-02-13T15:57:47;103488.31;;;5.63;100.00